Time;durP1;ratioP1;P1;durP2;ratioP2;P2;SDS_P1;SDS_P2;PMS_P1;PMS_P2;Temp;Humidity;BMP_temperature;BMP_pressure;BME280_temperature;BME280_humidity;BME280_pressure;Samples;Min_cycle;Max_cycle;Signal;HPM_P1;HPM_P2
2021/10/24 00:01:11;;;;;;;1.42;1.33;;;;;;;9.12;67.49;94306.06;5056265;28;20087;-49
2021/10/24 00:03:36;;;;;;;2.25;1.10;;;;;;;9.18;67.68;94310.25;5062895;28;20020;-45
2021/10/24 00:06:02;;;;;;;0.90;0.90;;;;;;;9.18;67.70;94309.53;5063057;28;20135;-47
2021/10/24 00:08:29;;;;;;;0.68;0.68;;;;;;;9.13;68.03;94296.56;5061568;28;20021;-45
2021/10/24 00:10:54;;;;;;;0.80;0.75;;;;;;;9.11;68.39;94299.09;5063018;28;20409;-46
2021/10/24 00:13:20;;;;;;;0.70;0.70;;;;;;;9.18;68.29;94300.50;5062623;28;20056;-48
2021/10/24 00:15:45;;;;;;;3.83;0.80;;;;;;;9.20;67.93;94309.00;5061476;28;20037;-47
2021/10/24 00:18:11;;;;;;;1.13;1.02;;;;;;;9.18;66.93;94307.50;5069821;28;20031;-47
2021/10/24 00:20:36;;;;;;;0.90;0.75;;;;;;;9.15;66.72;94305.03;5072524;28;20111;-47
2021/10/24 00:23:02;;;;;;;3.78;1.00;;;;;;;9.10;67.90;94305.84;5072489;28;20078;-46
2021/10/24 00:25:28;;;;;;;0.60;0.60;;;;;;;9.10;67.57;94312.09;5072856;28;20071;-49
2021/10/24 00:27:53;;;;;;;0.90;0.90;;;;;;;9.26;68.00;94317.94;5072844;28;20028;-48
2021/10/24 00:30:19;;;;;;;5.80;3.05;;;;;;;9.15;67.41;94325.09;5072758;28;20040;-51
2021/10/24 00:32:44;;;;;;;10.02;2.83;;;;;;;9.12;67.57;94334.38;5057397;28;20033;-48
2021/10/24 00:35:10;;;;;;;4.13;2.50;;;;;;;9.15;68.47;94327.84;5052154;28;20025;-52
2021/10/24 00:37:35;;;;;;;2.53;1.92;;;;;;;9.03;68.84;94298.91;5052714;28;20025;-51
2021/10/24 00:40:01;;;;;;;2.83;2.03;;;;;;;9.12;68.72;94322.59;5052477;28;20040;-52
2021/10/24 00:42:26;;;;;;;2.90;2.60;;;;;;;8.94;70.02;94310.28;5052253;28;20686;-49
2021/10/24 00:44:51;;;;;;;3.55;2.40;;;;;;;8.88;70.88;94306.84;5052092;28;20029;-51
2021/10/24 00:47:17;;;;;;;1.38;1.27;;;;;;;8.87;69.80;94310.13;5052043;28;20056;-48
2021/10/24 00:49:42;;;;;;;1.45;0.90;;;;;;;8.83;69.67;94318.69;5051749;28;20453;-51
2021/10/24 00:52:08;;;;;;;1.00;0.85;;;;;;;8.79;69.68;94320.94;5052385;28;20033;-49
2021/10/24 00:54:34;;;;;;;1.05;0.95;;;;;;;8.90;70.18;94320.84;5050698;28;20600;-48
2021/10/24 00:57:01;;;;;;;1.42;1.30;;;;;;;8.85;69.61;94324.41;5051017;28;20037;-48
2021/10/24 00:59:26;;;;;;;2.10;1.70;;;;;;;8.89;69.67;94315.84;5050648;28;20512;-49
2021/10/24 01:01:52;;;;;;;1.75;1.10;;;;;;;8.92;70.26;94321.06;5051916;28;20056;-48
2021/10/24 01:04:19;;;;;;;1.20;1.10;;;;;;;8.93;69.39;94316.31;5051829;28;20024;-52
2021/10/24 01:06:46;;;;;;;2.05;0.80;;;;;;;8.95;68.96;94309.03;5052159;28;20036;-49
2021/10/24 01:09:16;;;;;;;0.77;0.77;;;;;;;9.01;69.18;94315.22;5050532;28;20031;-49
2021/10/24 01:11:43;;;;;;;1.08;0.98;;;;;;;9.03;69.21;94303.69;5052266;28;20024;-51
2021/10/24 01:14:10;;;;;;;2.03;1.30;;;;;;;9.08;69.33;94300.88;5051920;28;20418;-50
2021/10/24 01:16:37;;;;;;;1.27;1.17;;;;;;;9.01;69.34;94306.19;5051917;28;20029;-51
2021/10/24 01:19:03;;;;;;;1.00;0.98;;;;;;;8.96;68.40;94316.03;5051720;28;20033;-47
2021/10/24 01:21:29;;;;;;;1.05;0.93;;;;;;;8.90;68.82;94317.34;5051818;28;20468;-47
2021/10/24 01:23:54;;;;;;;2.17;1.30;;;;;;;8.93;68.83;94319.81;5051760;28;20028;-48
2021/10/24 01:26:20;;;;;;;2.85;1.58;;;;;;;8.92;66.96;94317.59;5051325;28;20500;-51
2021/10/24 01:28:45;;;;;;;1.63;1.52;;;;;;;9.01;67.89;94328.97;5036928;28;20020;-50
2021/10/24 01:31:11;;;;;;;2.05;0.90;;;;;;;8.95;67.90;94319.28;5035835;28;20032;-50
2021/10/24 01:33:36;;;;;;;1.30;0.70;;;;;;;8.90;67.70;94328.38;5046162;28;20028;-49
2021/10/24 01:36:08;;;;;;;3.55;0.90;;;;;;;8.87;68.16;94335.66;5051472;28;20025;-52
2021/10/24 01:38:35;;;;;;;1.20;0.80;;;;;;;8.90;68.17;94331.84;5051442;28;20032;-51
2021/10/24 01:41:01;;;;;;;2.58;1.60;;;;;;;8.97;68.78;94325.78;5050940;28;20529;-49
2021/10/24 01:43:27;;;;;;;8.38;2.30;;;;;;;9.00;69.13;94330.25;5051096;28;20040;-51
2021/10/24 01:45:53;;;;;;;7.38;4.57;;;;;;;8.98;68.50;94338.28;5050677;28;20033;-52
2021/10/24 01:48:19;;;;;;;7.78;5.25;;;;;;;9.01;68.51;94328.22;5050916;28;20043;-50
2021/10/24 01:50:46;;;;;;;4.35;3.35;;;;;;;9.04;68.08;94327.97;5050973;28;20486;-47
2021/10/24 01:53:15;;;;;;;12.20;9.02;;;;;;;9.08;68.31;94333.16;5050662;28;20559;-49
2021/10/24 01:55:40;;;;;;;;;;;;;;;9.08;67.89;94341.44;5051098;28;20020;-50
2021/10/24 01:58:06;;;;;;;2.10;1.20;;;;;;;8.81;68.37;94354.25;5050401;28;19914;-52
2021/10/24 02:00:31;;;;;;;2.00;1.55;;;;;;;8.70;68.95;94348.84;5049976;28;20413;-52
2021/10/24 02:02:59;;;;;;;14.25;10.25;;;;;;;8.71;69.06;94349.56;5050954;28;20098;-48
2021/10/24 02:05:24;;;;;;;3.38;2.75;;;;;;;8.73;69.64;94347.78;5050713;28;20505;-50
2021/10/24 02:07:50;;;;;;;2.20;1.60;;;;;;;8.61;70.16;94338.16;5050654;28;20020;-52
2021/10/24 02:10:17;;;;;;;0.90;0.90;;;;;;;8.57;70.06;94345.19;5050975;28;20020;-51
2021/10/24 02:12:42;;;;;;;1.50;1.40;;;;;;;8.47;69.92;94347.53;5050669;28;20071;-48
2021/10/24 02:15:09;;;;;;;2.97;1.38;;;;;;;8.46;70.91;94346.06;5050526;28;20025;-52
2021/10/24 02:17:35;;;;;;;2.17;1.48;;;;;;;8.45;70.74;94350.03;5050524;28;20021;-50
2021/10/24 02:20:01;;;;;;;2.67;1.20;;;;;;;8.38;70.43;94348.59;5050649;28;20044;-49
2021/10/24 02:22:27;;;;;;;5.78;1.60;;;;;;;8.21;69.12;94352.72;5050746;28;20490;-45
2021/10/24 02:24:53;;;;;;;1.27;1.17;;;;;;;8.31;69.84;94351.19;5050328;28;20113;-46
2021/10/24 02:27:18;;;;;;;1.55;1.38;;;;;;;8.16;68.97;94362.50;5050652;28;20031;-48
2021/10/24 02:29:45;;;;;;;1.40;1.30;;;;;;;8.19;68.23;94368.97;5050345;28;20096;-46
2021/10/24 02:32:10;;;;;;;3.70;1.38;;;;;;;8.11;68.44;94360.53;5050580;28;20021;-47
2021/10/24 02:34:36;;;;;;;4.45;1.23;;;;;;;8.11;67.45;94366.03;5050590;28;20025;-49
2021/10/24 02:37:01;;;;;;;2.05;0.93;;;;;;;8.01;66.59;94344.88;5050427;28;20031;-44
2021/10/24 02:39:27;;;;;;;1.48;1.38;;;;;;;8.17;66.91;94371.50;5050436;28;20100;-43
2021/10/24 02:41:53;;;;;;;6.28;3.47;;;;;;;8.19;69.31;94380.72;5050143;28;20029;-47
2021/10/24 02:44:18;;;;;;;2.60;1.80;;;;;;;8.22;68.11;94376.97;5064255;28;20043;-47
2021/10/24 02:46:44;;;;;;;6.30;2.85;;;;;;;8.26;67.21;94382.97;5062967;28;20520;-44
2021/10/24 02:49:09;;;;;;;4.93;3.03;;;;;;;8.24;67.32;94379.19;5050119;28;20029;-46
2021/10/24 02:51:35;;;;;;;4.13;3.03;;;;;;;8.24;65.99;94379.19;5049976;28;20023;-47
2021/10/24 02:54:00;;;;;;;4.10;2.85;;;;;;;8.28;66.06;94383.22;5049683;28;20052;-47
2021/10/24 02:56:26;;;;;;;1.40;1.30;;;;;;;8.22;64.21;94382.47;5049970;28;20036;-47
2021/10/24 02:58:51;;;;;;;1.60;1.50;;;;;;;8.30;63.62;94382.69;5049737;28;20025;-49
2021/10/24 03:01:17;;;;;;;2.35;1.80;;;;;;;8.25;64.08;94369.72;5050166;28;20032;-47
2021/10/24 03:03:42;;;;;;;5.10;2.80;;;;;;;8.43;64.00;94390.34;5049839;28;20024;-46
2021/10/24 03:06:07;;;;;;;4.30;2.10;;;;;;;8.34;62.29;94388.66;5044922;28;20021;-44
2021/10/24 03:08:33;;;;;;;7.97;4.28;;;;;;;8.27;62.96;94381.69;5050180;28;20028;-43
2021/10/24 03:10:59;;;;;;;3.20;2.40;;;;;;;8.14;63.16;94389.75;5050326;28;20048;-44
2021/10/24 03:13:24;;;;;;;16.25;6.90;;;;;;;8.15;64.94;94391.25;5053984;28;20483;-43
2021/10/24 03:15:50;;;;;;;7.53;4.38;;;;;;;8.15;65.64;94388.50;5054130;28;20108;-43
2021/10/24 03:18:16;;;;;;;10.25;5.47;;;;;;;8.18;63.97;94381.25;5054111;28;20021;-43
2021/10/24 03:20:41;;;;;;;6.97;4.28;;;;;;;8.22;64.14;94385.22;5054008;28;20032;-43
2021/10/24 03:23:07;;;;;;;14.80;7.65;;;;;;;8.30;65.17;94382.69;5053582;28;20514;-45
2021/10/24 03:25:33;;;;;;;7.72;4.25;;;;;;;8.32;64.10;94383.66;5053649;28;20024;-45
2021/10/24 03:27:58;;;;;;;3.90;2.50;;;;;;;8.35;64.45;94392.91;5053572;28;20108;-44
2021/10/24 03:30:24;;;;;;;5.65;3.47;;;;;;;8.46;63.88;94395.59;5053556;28;20025;-47
2021/10/24 03:32:49;;;;;;;6.72;3.67;;;;;;;8.49;63.95;94393.81;5053724;28;20036;-47
2021/10/24 03:35:15;;;;;;;2.55;2.10;;;;;;;8.46;64.37;94390.09;5053731;28;20020;-46
2021/10/24 03:37:40;;;;;;;3.17;2.85;;;;;;;8.51;64.59;94389.28;5053753;28;20025;-48
2021/10/24 03:40:06;;;;;;;3.28;1.95;;;;;;;8.51;63.69;94396.81;5053330;28;20025;-45
2021/10/24 03:42:32;;;;;;;3.70;2.35;;;;;;;8.59;63.82;94389.47;5053600;28;20441;-45
2021/10/24 03:44:57;;;;;;;4.95;2.35;;;;;;;8.54;62.68;94393.75;5053171;28;20021;-45
2021/10/24 03:47:23;;;;;;;4.28;2.10;;;;;;;8.46;62.66;94397.59;5052910;28;20017;-44
2021/10/24 03:49:48;;;;;;;4.65;2.78;;;;;;;8.49;63.43;94397.28;5053575;28;20032;-44
2021/10/24 03:52:13;;;;;;;3.30;2.05;;;;;;;8.45;63.50;94398.84;5053541;28;20459;-45
2021/10/24 03:54:39;;;;;;;3.95;2.35;;;;;;;8.49;62.31;94402.06;5052899;28;20618;-46
2021/10/24 03:57:04;;;;;;;3.28;2.40;;;;;;;8.48;63.10;94386.81;5053331;28;20457;-44
2021/10/24 03:59:30;;;;;;;3.65;2.50;;;;;;;8.54;61.93;94404.03;5053245;28;20025;-44
2021/10/24 04:01:55;;;;;;;2.33;2.10;;;;;;;8.62;63.03;94394.69;5053329;28;20444;-45
2021/10/24 04:04:21;;;;;;;4.22;2.45;;;;;;;8.61;63.67;94401.47;5053224;28;20490;-45
2021/10/24 04:06:46;;;;;;;4.07;2.50;;;;;;;8.69;63.44;94398.88;5052930;28;20509;-47
2021/10/24 04:09:12;;;;;;;3.67;2.58;;;;;;;8.62;62.65;94397.44;5052723;28;20091;-47
2021/10/24 04:11:37;;;;;;;4.13;2.60;;;;;;;8.64;62.84;94389.41;5052860;28;20025;-47
2021/10/24 04:14:03;;;;;;;3.33;2.00;;;;;;;8.60;63.67;94388.94;5052837;28;20025;-47
2021/10/24 04:16:28;;;;;;;3.75;2.70;;;;;;;8.62;63.04;94397.44;5052662;28;20021;-47
2021/10/24 04:18:54;;;;;;;4.03;2.58;;;;;;;8.70;63.20;94397.66;5052870;28;20021;-49
2021/10/24 04:21:19;;;;;;;5.43;2.88;;;;;;;8.56;63.66;94377.47;5052681;28;20738;-49
2021/10/24 04:23:45;;;;;;;6.20;3.10;;;;;;;8.60;63.45;94396.50;5051801;28;20064;-47
2021/10/24 04:26:10;;;;;;;4.30;2.10;;;;;;;8.63;63.29;94406.44;5052854;28;20039;-49
2021/10/24 04:28:35;;;;;;;4.90;3.42;;;;;;;8.67;64.95;94399.41;5052604;28;20402;-47
2021/10/24 04:31:01;;;;;;;11.40;4.85;;;;;;;8.73;65.62;94393.84;5052596;28;20067;-46
2021/10/24 04:33:26;;;;;;;7.05;5.22;;;;;;;8.75;66.75;94392.06;5052762;28;20025;-46
2021/10/24 04:35:52;;;;;;;7.47;5.50;;;;;;;8.69;66.68;94402.41;5052590;28;20095;-45
2021/10/24 04:38:17;;;;;;;5.72;4.43;;;;;;;8.71;66.02;94399.88;5052673;28;20029;-46
2021/10/24 04:40:43;;;;;;;5.40;4.38;;;;;;;8.64;65.52;94399.69;5052454;28;20437;-47
2021/10/24 04:43:13;;;;;;;12.88;7.95;;;;;;;8.65;66.79;94399.19;5052356;28;20502;-48
2021/10/24 04:45:38;;;;;;;20.48;17.13;;;;;;;8.69;66.19;94401.66;5052200;28;20520;-47
2021/10/24 04:48:04;;;;;;;23.70;17.25;;;;;;;8.67;66.43;94409.66;5051834;28;20033;-48
2021/10/24 04:50:29;;;;;;;29.50;22.50;;;;;;;8.69;65.39;94412.66;5052391;28;20490;-47
2021/10/24 04:52:55;;;;;;;21.48;16.25;;;;;;;8.69;66.01;94418.91;5052323;28;20025;-45
2021/10/24 04:55:20;;;;;;;19.23;13.15;;;;;;;8.72;65.47;94415.16;5051873;28;20630;-47
2021/10/24 04:57:46;;;;;;;11.77;6.93;;;;;;;8.69;65.47;94420.91;5052269;28;20563;-46
2021/10/24 05:00:12;;;;;;;40.20;27.33;;;;;;;8.68;63.64;94422.19;5051887;28;20418;-46
2021/10/24 05:02:39;;;;;;;22.40;14.70;;;;;;;8.63;63.04;94426.47;5052259;28;20443;-46
2021/10/24 05:05:05;;;;;;;34.58;22.55;;;;;;;8.58;64.28;94429.25;5052063;28;20033;-46
2021/10/24 05:07:30;;;;;;;18.75;11.93;;;;;;;8.59;62.66;94442.53;5052023;28;20028;-45
2021/10/24 05:09:56;;;;;;;12.15;7.05;;;;;;;8.58;64.01;94440.25;5052095;28;20071;-49
2021/10/24 05:12:21;;;;;;;10.57;7.63;;;;;;;8.58;63.20;94440.25;5051954;28;20025;-51
2021/10/24 05:14:47;;;;;;;25.05;15.00;;;;;;;8.57;63.23;94442.28;5051320;28;20064;-51
2021/10/24 05:17:12;;;;;;;4.78;3.78;;;;;;;8.56;64.59;94448.28;5051204;28;20044;-45
2021/10/24 05:19:37;;;;;;;16.05;8.68;;;;;;;8.58;64.05;94451.28;5051482;28;20036;-46
2021/10/24 05:22:03;;;;;;;14.02;9.15;;;;;;;8.54;63.28;94454.31;5051524;28;20028;-46
2021/10/24 05:24:28;;;;;;;14.05;9.02;;;;;;;8.62;64.02;94457.28;5051467;28;20041;-45
2021/10/24 05:26:55;;;;;;;14.50;9.68;;;;;;;8.67;63.56;94462.72;5051691;28;20025;-49
2021/10/24 05:29:20;;;;;;;14.57;10.57;;;;;;;8.65;63.78;94470.75;5051621;28;20017;-46
2021/10/24 05:31:46;;;;;;;4.35;3.90;;;;;;;8.58;63.23;94479.56;5051361;28;20132;-45
2021/10/24 05:34:11;;;;;;;14.25;7.32;;;;;;;8.64;64.40;94476.78;5051409;28;20086;-44
2021/10/24 05:36:37;;;;;;;11.40;8.80;;;;;;;8.51;63.63;94447.06;5051520;28;20417;-46
2021/10/24 05:39:03;;;;;;;12.77;9.02;;;;;;;8.65;63.05;94459.75;5051007;28;20025;-45
2021/10/24 05:41:31;;;;;;;12.00;8.90;;;;;;;8.61;64.23;94473.03;5051154;28;20017;-44
2021/10/24 05:43:57;;;;;;;11.50;8.10;;;;;;;8.55;65.58;94475.09;5061930;28;20028;-45
2021/10/24 05:46:22;;;;;;;25.33;9.43;;;;;;;8.40;65.00;94477.44;5066966;28;20020;-48
2021/10/24 05:48:48;;;;;;;16.80;9.05;;;;;;;8.39;64.01;94487.69;5060300;28;20025;-50
2021/10/24 05:51:13;;;;;;;41.88;23.27;;;;;;;8.32;65.31;94479.97;5071174;28;20017;-49
2021/10/24 05:53:39;;;;;;;14.25;8.63;;;;;;;8.37;64.07;94481.94;5068828;28;20109;-49
2021/10/24 05:56:05;;;;;;;15.63;10.18;;;;;;;8.47;64.31;94487.16;5062682;28;20033;-47
2021/10/24 05:58:30;;;;;;;7.28;4.60;;;;;;;8.63;64.60;94498.06;5051110;28;20382;-47
2021/10/24 06:00:56;;;;;;;4.85;4.22;;;;;;;8.82;62.47;94500.91;5057505;28;20450;-49
2021/10/24 06:03:21;;;;;;;4.40;3.67;;;;;;;9.01;61.22;94507.28;5070978;28;20025;-45
2021/10/24 06:05:46;;;;;;;4.80;3.30;;;;;;;9.24;60.79;94507.84;5070943;28;20390;-48
2021/10/24 06:08:21;;;;;;;9.30;5.85;;;;;;;9.34;60.63;94506.25;5070879;28;20452;-46
2021/10/24 06:10:47;;;;;;;3.15;2.38;;;;;;;9.49;59.84;94515.63;5070709;28;20024;-47
2021/10/24 06:13:13;;;;;;;4.22;2.90;;;;;;;9.55;58.12;94512.81;5043975;28;20086;-45
2021/10/24 06:15:39;;;;;;;3.92;3.05;;;;;;;9.62;55.59;94515.00;5036053;28;20017;-49
2021/10/24 06:18:06;;;;;;;3.10;2.40;;;;;;;9.76;57.10;94530.41;5052750;28;20112;-44
2021/10/24 06:20:32;;;;;;;3.88;2.80;;;;;;;9.89;56.33;94520.22;5050689;28;20465;-46
2021/10/24 06:22:57;;;;;;;5.65;2.90;;;;;;;9.92;55.69;94510.16;5050657;28;20100;-45
2021/10/24 06:25:23;;;;;;;3.72;3.22;;;;;;;10.01;57.14;94531.88;5050570;28;20057;-45
2021/10/24 06:27:48;;;;;;;2.78;2.28;;;;;;;10.16;57.19;94537.75;5050647;28;20036;-48
2021/10/24 06:30:17;;;;;;;2.53;2.17;;;;;;;10.28;57.26;94539.13;5050319;28;20021;-46
2021/10/24 06:32:43;;;;;;;4.28;2.60;;;;;;;10.41;56.75;94539.22;5050614;28;20456;-45
2021/10/24 06:35:09;;;;;;;3.60;2.60;;;;;;;10.38;54.94;94515.41;5050515;28;20059;-45
2021/10/24 06:38:01;;;;;;;3.80;2.90;;;;;;;10.54;54.11;94538.53;5050506;28;20021;-46
2021/10/24 06:40:26;;;;;;;3.97;3.05;;;;;;;10.59;54.99;94546.72;5054771;28;20091;-47
2021/10/24 06:42:52;;;;;;;6.85;3.88;;;;;;;10.43;54.63;94546.97;5061184;28;20020;-47
2021/10/24 06:45:17;;;;;;;8.00;3.47;;;;;;;10.46;55.32;94537.66;5059450;28;20020;-47
2021/10/24 06:47:43;;;;;;;4.93;3.55;;;;;;;10.50;53.08;94533.28;5059192;28;20023;-47
2021/10/24 06:50:10;;;;;;;6.10;4.57;;;;;;;11.08;52.01;94543.78;5056348;28;20482;-47
2021/10/24 06:52:36;;;;;;;5.88;2.40;;;;;;;11.46;48.84;94517.53;5070344;28;20043;-44
2021/10/24 06:55:03;;;;;;;4.25;3.17;;;;;;;12.12;46.38;94546.81;5069778;28;20102;-46
2021/10/24 06:57:28;;;;;;;5.25;3.67;;;;;;;12.30;47.49;94547.22;5070009;28;20032;-46
2021/10/24 06:59:54;;;;;;;4.28;2.92;;;;;;;12.69;45.92;94538.84;5070201;28;20020;-45
2021/10/24 07:02:20;;;;;;;6.90;3.15;;;;;;;13.37;44.55;94536.81;5069920;28;20516;-46
2021/10/24 07:04:45;;;;;;;4.38;2.83;;;;;;;13.85;40.74;94546.47;5070222;28;20020;-46
2021/10/24 07:07:11;;;;;;;5.75;4.07;;;;;;;14.47;41.34;94552.63;5070041;28;20028;-47
2021/10/24 07:09:36;;;;;;;5.90;3.17;;;;;;;15.08;40.63;94559.94;5060304;28;20567;-44
2021/10/24 07:12:02;;;;;;;3.78;2.13;;;;;;;15.34;38.54;94558.16;5050057;28;20028;-48
2021/10/24 07:14:27;;;;;;;5.15;3.25;;;;;;;14.84;37.85;94554.09;5049859;28;20024;-50
2021/10/24 07:16:53;;;;;;;5.20;3.85;;;;;;;14.92;39.30;94552.13;5049703;28;20032;-48
2021/10/24 07:19:18;;;;;;;5.15;2.95;;;;;;;14.44;40.75;94562.09;5049663;28;20091;-45
2021/10/24 07:21:44;;;;;;;11.10;5.55;;;;;;;13.86;41.41;94559.06;5049762;28;20036;-43
2021/10/24 07:24:09;;;;;;;16.35;9.90;;;;;;;14.00;42.54;94558.44;5049631;28;20036;-45
2021/10/24 07:26:35;;;;;;;13.27;8.13;;;;;;;14.55;40.71;94556.22;5049724;28;20021;-47
2021/10/24 07:29:01;;;;;;;8.68;4.88;;;;;;;14.79;38.09;94555.03;5049529;28;20032;-46
2021/10/24 07:31:27;;;;;;;12.20;3.70;;;;;;;14.94;40.18;94552.31;5049661;28;20087;-47
2021/10/24 07:33:53;;;;;;;28.77;5.82;;;;;;;15.51;37.97;94542.44;5049594;28;20025;-42
2021/10/24 07:36:19;;;;;;;7.78;5.53;;;;;;;15.71;36.41;94538.75;5049900;28;20024;-46
2021/10/24 07:38:44;;;;;;;7.57;4.90;;;;;;;16.47;36.78;94560.97;5031913;28;20033;-45
2021/10/24 07:41:11;;;;;;;6.35;3.38;;;;;;;17.17;33.50;94544.91;5049349;28;20021;-43
2021/10/24 07:43:39;;;;;;;5.72;3.75;;;;;;;18.23;33.86;94549.06;5049751;28;20021;-46
2021/10/24 07:46:04;;;;;;;4.95;2.15;;;;;;;18.35;31.62;94545.22;5049422;28;20024;-45
2021/10/24 07:48:30;;;;;;;4.88;2.30;;;;;;;19.19;30.30;94540.19;5049511;28;20021;-45
2021/10/24 07:50:56;;;;;;;3.92;2.60;;;;;;;19.25;30.60;94546.25;5049753;28;20096;-43
2021/10/24 07:53:25;;;;;;;6.43;3.17;;;;;;;18.87;29.58;94557.94;5049384;28;20060;-43
2021/10/24 07:55:54;;;;;;;5.78;2.88;;;;;;;18.23;30.92;94547.00;5049429;28;20036;-44
2021/10/24 07:58:20;;;;;;;;;;;;;;;18.05;29.17;94545.47;5049706;28;20549;-43
2021/10/24 08:00:50;;;;;;;3.33;2.28;;;;;;;19.14;28.89;94540.44;5053361;28;19920;-43
2021/10/24 08:03:16;;;;;;;7.10;2.20;;;;;;;19.46;27.09;94538.16;5052619;28;20075;-45
2021/10/24 08:05:42;;;;;;;7.93;2.47;;;;;;;19.98;26.64;94551.97;5050539;28;20108;-47
2021/10/24 08:08:08;;;;;;;8.90;2.75;;;;;;;20.64;26.57;94548.59;5051599;28;20124;-45
2021/10/24 08:10:33;;;;;;;2.38;1.70;;;;;;;20.97;25.15;94552.47;5051898;28;20049;-44
2021/10/24 08:12:59;;;;;;;2.20;1.58;;;;;;;21.13;24.69;94550.13;5035037;28;20071;-46
2021/10/24 08:15:25;;;;;;;2.20;2.00;;;;;;;20.70;26.52;94528.69;5052773;28;20024;-46
2021/10/24 08:17:51;;;;;;;5.03;2.10;;;;;;;21.59;25.42;94553.44;5052991;28;20025;-49
2021/10/24 08:20:17;;;;;;;4.13;1.73;;;;;;;21.77;24.30;94549.09;5052667;28;20151;-44
2021/10/24 08:22:44;;;;;;;4.20;2.63;;;;;;;22.32;24.08;94555.72;5051102;28;20053;-45
2021/10/24 08:25:10;;;;;;;6.25;3.33;;;;;;;23.18;23.27;94543.88;5050728;28;20560;-46
2021/10/24 08:27:36;;;;;;;7.85;4.85;;;;;;;23.45;23.90;94552.72;5050835;28;20021;-48
2021/10/24 08:30:05;;;;;;;6.45;2.75;;;;;;;23.51;22.71;94555.16;5051105;28;20065;-45
2021/10/24 08:32:30;;;;;;;;;;;;;;;24.25;22.71;94565.50;5051577;28;20021;-46
2021/10/24 08:34:56;;;;;;;4.60;2.60;;;;;;;22.57;24.04;94544.75;5050695;28;20294;-45
2021/10/24 08:37:22;;;;;;;6.65;2.22;;;;;;;23.12;23.88;94561.13;5051955;28;20029;-44
2021/10/24 08:39:52;;;;;;;3.83;3.22;;;;;;;23.00;22.63;94562.41;5051383;28;20029;-45
2021/10/24 08:42:33;;;;;;;2.55;1.80;;;;;;;22.58;23.60;94565.94;5052664;28;20057;-45
2021/10/24 08:45:00;;;;;;;8.55;1.80;;;;;;;22.49;23.23;94559.03;5071827;28;20090;-44
2021/10/24 08:47:27;;;;;;;2.70;1.80;;;;;;;23.76;23.00;94555.34;5059388;28;20020;-47
2021/10/24 08:49:53;;;;;;;2.40;1.50;;;;;;;23.45;21.97;94561.16;5052345;28;20053;-46
2021/10/24 08:52:20;;;;;;;1.65;1.38;;;;;;;23.64;22.51;94554.59;5052149;28;20025;-47
2021/10/24 08:54:45;;;;;;;2.33;1.10;;;;;;;23.30;22.34;94562.28;5051704;28;20033;-47
2021/10/24 08:57:11;;;;;;;3.28;1.35;;;;;;;23.41;22.12;94572.19;5052189;28;20029;-44
2021/10/24 08:59:38;;;;;;;4.82;2.28;;;;;;;23.44;22.28;94582.22;5051942;28;20104;-48
2021/10/24 09:02:04;;;;;;;3.33;2.38;;;;;;;23.76;20.86;94578.63;5052138;28;20025;-45
2021/10/24 09:04:29;;;;;;;2.42;1.88;;;;;;;23.66;22.24;94578.00;5051920;28;20028;-45
2021/10/24 09:07:00;;;;;;;4.05;2.33;;;;;;;24.04;21.40;94571.97;5051503;28;20025;-46
2021/10/24 09:09:31;;;;;;;2.83;2.22;;;;;;;24.57;21.96;94575.19;5058554;28;20489;-46
2021/10/24 09:12:01;;;;;;;4.95;1.73;;;;;;;24.06;21.19;94583.38;5057667;28;20044;-47
2021/10/24 09:14:46;;;;;;;9.73;2.97;;;;;;;24.61;20.54;94581.81;5060435;28;20024;-47
2021/10/24 09:17:25;;;;;;;5.32;1.95;;;;;;;23.42;22.06;94572.91;5057320;28;20052;-47
2021/10/24 09:19:53;;;;;;;9.23;3.15;;;;;;;23.00;22.64;94573.69;5053432;28;20418;-45
2021/10/24 09:22:27;;;;;;;7.35;3.97;;;;;;;23.02;22.54;94590.72;5056499;28;20021;-46
2021/10/24 09:25:14;;;;;;;4.53;2.00;;;;;;;23.11;22.38;94585.00;5058387;28;20035;-46
2021/10/24 09:27:44;;;;;;;5.78;3.22;;;;;;;23.46;22.18;94573.91;5044411;28;20029;-48
2021/10/24 09:30:21;;;;;;;5.25;3.10;;;;;;;23.16;22.09;94574.72;5034676;28;20022;-44
2021/10/24 09:33:09;;;;;;;5.97;3.63;;;;;;;24.18;20.88;94577.75;5030738;28;20386;-45
2021/10/24 09:35:44;;;;;;;7.43;3.38;;;;;;;23.96;20.85;94585.56;5035427;28;20033;-46
2021/10/24 09:38:19;;;;;;;1.40;1.27;;;;;;;23.91;22.58;94580.25;5035244;28;20047;-45
2021/10/24 09:40:47;;;;;;;2.85;1.75;;;;;;;24.78;21.28;94572.97;5052729;28;20025;-46
2021/10/24 09:43:19;;;;;;;3.17;1.77;;;;;;;24.43;20.58;94586.34;5070741;28;20028;-45
2021/10/24 09:45:58;;;;;;;4.78;2.88;;;;;;;25.10;21.43;94579.75;5070442;28;20028;-44
2021/10/24 09:48:25;;;;;;;3.42;1.85;;;;;;;24.12;21.70;94588.69;5050188;28;20104;-45
2021/10/24 09:50:56;;;;;;;9.43;2.30;;;;;;;24.04;22.10;94586.09;5043872;28;20552;-47
2021/10/24 09:53:26;;;;;;;9.55;4.47;;;;;;;23.38;22.08;94578.28;5035670;28;20049;-47
2021/10/24 09:55:55;;;;;;;8.90;5.40;;;;;;;22.43;23.23;94583.94;5029675;28;20036;-46
2021/10/24 09:58:22;;;;;;;6.63;4.38;;;;;;;22.47;23.69;94584.22;5030078;28;20526;-45
2021/10/24 10:00:48;;;;;;;4.70;2.95;;;;;;;22.56;23.48;94589.06;5030513;28;20033;-45
2021/10/24 10:03:14;;;;;;;4.63;2.45;;;;;;;23.16;22.65;94581.13;5048942;28;20433;-46
2021/10/24 10:05:39;;;;;;;3.65;2.85;;;;;;;23.09;22.03;94576.41;5049909;28;20048;-46
2021/10/24 10:08:09;;;;;;;6.53;4.10;;;;;;;22.39;23.66;94574.50;5048771;28;20095;-46
2021/10/24 10:10:48;;;;;;;8.90;5.38;;;;;;;23.08;22.48;94580.59;5048759;28;20409;-46
2021/10/24 10:13:18;;;;;;;8.55;3.60;;;;;;;22.80;21.68;94586.41;5030800;28;20052;-47
2021/10/24 10:15:45;;;;;;;11.32;5.90;;;;;;;22.60;21.83;94597.81;5048614;28;20021;-45
2021/10/24 10:18:11;;;;;;;11.10;6.75;;;;;;;22.49;20.35;94598.44;5030948;28;20104;-47
2021/10/24 10:20:51;;;;;;;16.85;9.15;;;;;;;23.09;21.11;94590.50;5029973;28;20104;-45
2021/10/24 10:23:24;;;;;;;7.93;5.18;;;;;;;23.05;21.83;94583.88;5050046;28;20406;-47
2021/10/24 10:25:50;;;;;;;12.55;6.85;;;;;;;23.46;21.26;94584.44;5032182;28;20025;-46
2021/10/24 10:28:44;;;;;;;13.88;9.15;;;;;;;23.57;21.41;94584.47;5050155;28;20105;-46
2021/10/24 10:31:14;;;;;;;4.03;2.85;;;;;;;23.46;19.25;94578.78;5049720;28;20037;-46
2021/10/24 10:33:40;;;;;;;5.20;3.20;;;;;;;23.17;19.90;94571.31;5050107;28;20017;-45
2021/10/24 10:36:07;;;;;;;7.80;2.38;;;;;;;23.47;21.57;94580.28;5049498;28;20490;-46
2021/10/24 10:38:38;;;;;;;4.88;2.60;;;;;;;24.02;20.08;94577.47;5049505;28;20033;-45
2021/10/24 10:41:04;;;;;;;7.05;2.85;;;;;;;23.55;20.54;94581.53;5049452;28;20021;-48
2021/10/24 10:43:32;;;;;;;4.45;2.33;;;;;;;24.00;20.71;94574.53;5049796;28;20087;-47
2021/10/24 10:45:59;;;;;;;2.97;2.28;;;;;;;24.15;19.88;94564.88;5049642;28;20036;-45
2021/10/24 10:48:36;;;;;;;4.38;1.80;;;;;;;24.60;20.01;94576.78;5049579;28;20024;-46
2021/10/24 10:51:27;;;;;;;7.68;3.28;;;;;;;25.12;19.71;94582.00;5049763;28;20037;-46
2021/10/24 10:54:01;;;;;;;9.43;2.33;;;;;;;25.55;18.74;94575.31;5049097;28;20183;-46
2021/10/24 10:56:31;;;;;;;7.03;4.07;;;;;;;25.10;18.69;94579.03;5049524;28;20446;-43
2021/10/24 10:58:59;;;;;;;12.45;2.17;;;;;;;25.52;18.37;94582.22;5036602;28;20458;-45
2021/10/24 11:01:25;;;;;;;4.47;2.03;;;;;;;25.72;18.84;94587.53;5049385;28;20567;-48
2021/10/24 11:04:18;;;;;;;1.63;1.17;;;;;;;24.91;18.11;94574.41;5049679;28;20112;-47
2021/10/24 11:06:55;;;;;;;2.90;1.50;;;;;;;24.87;19.13;94567.78;5045173;28;20043;-45
2021/10/24 11:09:41;;;;;;;7.80;1.20;;;;;;;24.52;19.18;94565.72;5031465;28;20035;-46
2021/10/24 11:12:09;;;;;;;1.63;0.98;;;;;;;24.97;18.29;94586.06;5049347;28;20036;-47
2021/10/24 11:14:41;;;;;;;13.65;1.65;;;;;;;24.84;18.82;94584.63;5048788;28;20033;-47
2021/10/24 11:17:07;;;;;;;2.95;1.27;;;;;;;24.58;19.26;94579.47;5033343;28;20046;-46
2021/10/24 11:19:39;;;;;;;2.80;1.73;;;;;;;24.27;20.21;94574.09;5031501;28;20726;-46
2021/10/24 11:22:09;;;;;;;5.90;2.03;;;;;;;24.42;19.77;94572.84;5027874;28;20053;-46
2021/10/24 11:24:49;;;;;;;7.65;2.35;;;;;;;23.83;19.62;94574.88;5027369;28;20033;-48
2021/10/24 11:27:17;;;;;;;4.80;2.92;;;;;;;23.63;20.70;94559.47;5033082;28;20036;-44
2021/10/24 11:29:50;;;;;;;2.83;1.53;;;;;;;23.61;19.96;94572.72;5036139;28;20028;-46
2021/10/24 11:32:15;;;;;;;3.35;1.83;;;;;;;23.03;19.79;94572.47;5043514;28;20033;-46
2021/10/24 11:34:41;;;;;;;5.68;4.20;;;;;;;23.10;20.56;94571.53;5037747;28;20125;-44
2021/10/24 11:37:07;;;;;;;4.80;2.70;;;;;;;22.38;19.94;94568.13;5030712;28;20025;-45